sensor_id;sensor_type;location;lat;lon;timestamp;temperature;humidity
8662;DHT22;29684;47.722;9.388;2023-09-18T00:01:39;17.70;99.90
8662;DHT22;29684;47.722;9.388;2023-09-18T00:04:24;17.90;99.90
8662;DHT22;29684;47.722;9.388;2023-09-18T00:07:08;18.00;99.90
8662;DHT22;29684;47.722;9.388;2023-09-18T00:09:55;18.00;99.90
8662;DHT22;29684;47.722;9.388;2023-09-18T00:12:40;17.80;99.90
8662;DHT22;29684;47.722;9.388;2023-09-18T00:15:24;17.70;99.90
8662;DHT22;29684;47.722;9.388;2023-09-18T00:18:09;17.60;99.90
8662;DHT22;29684;47.722;9.388;2023-09-18T00:20:53;17.50;99.90
8662;DHT22;29684;47.722;9.388;2023-09-18T00:23:38;17.40;99.90
8662;DHT22;29684;47.722;9.388;2023-09-18T00:26:23;17.40;99.90
8662;DHT22;29684;47.722;9.388;2023-09-18T00:29:07;17.40;99.90
8662;DHT22;29684;47.722;9.388;2023-09-18T00:31:51;17.40;99.90
8662;DHT22;29684;47.722;9.388;2023-09-18T00:34:35;17.30;99.90
8662;DHT22;29684;47.722;9.388;2023-09-18T00:37:19;17.40;99.90
8662;DHT22;29684;47.722;9.388;2023-09-18T00:40:04;17.40;99.90
8662;DHT22;29684;47.722;9.388;2023-09-18T00:42:48;17.60;99.90
8662;DHT22;29684;47.722;9.388;2023-09-18T00:45:33;17.60;99.90
8662;DHT22;29684;47.722;9.388;2023-09-18T00:48:18;17.50;99.90
8662;DHT22;29684;47.722;9.388;2023-09-18T00:51:03;17.30;99.90
8662;DHT22;29684;47.722;9.388;2023-09-18T00:53:48;17.30;99.90
8662;DHT22;29684;47.722;9.388;2023-09-18T00:56:33;17.50;99.90
8662;DHT22;29684;47.722;9.388;2023-09-18T00:59:18;17.60;99.90
8662;DHT22;29684;47.722;9.388;2023-09-18T01:02:02;17.30;99.90
8662;DHT22;29684;47.722;9.388;2023-09-18T01:04:49;17.10;99.90
8662;DHT22;29684;47.722;9.388;2023-09-18T01:07:34;17.00;99.90
8662;DHT22;29684;47.722;9.388;2023-09-18T01:10:19;16.90;99.90
8662;DHT22;29684;47.722;9.388;2023-09-18T01:13:12;16.80;99.90
8662;DHT22;29684;47.722;9.388;2023-09-18T01:16:07;16.90;99.90
8662;DHT22;29684;47.722;9.388;2023-09-18T01:18:52;17.00;99.90
8662;DHT22;29684;47.722;9.388;2023-09-18T01:21:36;17.10;99.90
8662;DHT22;29684;47.722;9.388;2023-09-18T01:24:20;17.10;99.90
8662;DHT22;29684;47.722;9.388;2023-09-18T01:27:07;17.10;99.90
8662;DHT22;29684;47.722;9.388;2023-09-18T01:29:51;17.00;99.90
8662;DHT22;29684;47.722;9.388;2023-09-18T01:32:38;16.80;99.90
8662;DHT22;29684;47.722;9.388;2023-09-18T01:35:24;16.80;99.90
8662;DHT22;29684;47.722;9.388;2023-09-18T01:38:13;16.90;99.90
8662;DHT22;29684;47.722;9.388;2023-09-18T01:40:58;17.00;99.90
8662;DHT22;29684;47.722;9.388;2023-09-18T01:43:42;17.20;99.90
8662;DHT22;29684;47.722;9.388;2023-09-18T01:46:26;17.30;99.90
8662;DHT22;29684;47.722;9.388;2023-09-18T01:49:11;17.20;99.90
8662;DHT22;29684;47.722;9.388;2023-09-18T01:51:55;17.20;99.90
8662;DHT22;29684;47.722;9.388;2023-09-18T01:54:40;17.20;99.90
8662;DHT22;29684;47.722;9.388;2023-09-18T01:57:24;17.40;99.90
8662;DHT22;29684;47.722;9.388;2023-09-18T02:00:10;17.30;99.90
8662;DHT22;29684;47.722;9.388;2023-09-18T02:02:54;17.30;99.90
8662;DHT22;29684;47.722;9.388;2023-09-18T02:05:40;17.30;99.90
8662;DHT22;29684;47.722;9.388;2023-09-18T02:08:25;17.40;99.90
8662;DHT22;29684;47.722;9.388;2023-09-18T02:11:09;17.50;99.90
8662;DHT22;29684;47.722;9.388;2023-09-18T02:13:53;17.60;99.90
8662;DHT22;29684;47.722;9.388;2023-09-18T02:16:39;17.80;99.90
8662;DHT22;29684;47.722;9.388;2023-09-18T02:19:27;17.50;99.90
8662;DHT22;29684;47.722;9.388;2023-09-18T02:22:11;17.30;99.90
8662;DHT22;29684;47.722;9.388;2023-09-18T02:24:55;17.20;99.90
8662;DHT22;29684;47.722;9.388;2023-09-18T02:27:39;17.30;99.90
8662;DHT22;29684;47.722;9.388;2023-09-18T02:30:23;17.40;99.90
8662;DHT22;29684;47.722;9.388;2023-09-18T02:33:07;17.40;99.90
8662;DHT22;29684;47.722;9.388;2023-09-18T02:35:51;17.40;99.90
8662;DHT22;29684;47.722;9.388;2023-09-18T02:38:35;17.40;99.90
8662;DHT22;29684;47.722;9.388;2023-09-18T02:41:19;17.10;99.90
8662;DHT22;29684;47.722;9.388;2023-09-18T02:44:04;17.00;99.90
8662;DHT22;29684;47.722;9.388;2023-09-18T02:46:48;17.20;99.90
8662;DHT22;29684;47.722;9.388;2023-09-18T02:49:32;17.10;99.90
8662;DHT22;29684;47.722;9.388;2023-09-18T02:52:17;17.10;99.90
8662;DHT22;29684;47.722;9.388;2023-09-18T02:55:01;17.10;99.90
8662;DHT22;29684;47.722;9.388;2023-09-18T02:57:45;17.00;99.90
8662;DHT22;29684;47.722;9.388;2023-09-18T03:00:29;17.00;99.90
8662;DHT22;29684;47.722;9.388;2023-09-18T03:03:14;16.90;99.90
8662;DHT22;29684;47.722;9.388;2023-09-18T03:06:03;17.00;99.90
8662;DHT22;29684;47.722;9.388;2023-09-18T03:08:47;16.70;99.90
8662;DHT22;29684;47.722;9.388;2023-09-18T03:11:32;16.50;99.90
8662;DHT22;29684;47.722;9.388;2023-09-18T03:14:16;16.40;99.90
8662;DHT22;29684;47.722;9.388;2023-09-18T03:17:00;16.20;99.90
8662;DHT22;29684;47.722;9.388;2023-09-18T03:19:48;16.30;99.90
8662;DHT22;29684;47.722;9.388;2023-09-18T03:22:32;16.30;99.90
8662;DHT22;29684;47.722;9.388;2023-09-18T03:25:17;16.30;99.90
8662;DHT22;29684;47.722;9.388;2023-09-18T03:28:01;16.30;99.90
8662;DHT22;29684;47.722;9.388;2023-09-18T03:30:45;16.40;99.90
8662;DHT22;29684;47.722;9.388;2023-09-18T03:33:29;16.40;99.90
8662;DHT22;29684;47.722;9.388;2023-09-18T03:36:13;16.70;99.90
8662;DHT22;29684;47.722;9.388;2023-09-18T03:38:58;17.00;99.90
8662;DHT22;29684;47.722;9.388;2023-09-18T03:41:42;17.30;99.90
8662;DHT22;29684;47.722;9.388;2023-09-18T03:44:27;17.60;99.90
8662;DHT22;29684;47.722;9.388;2023-09-18T03:47:11;17.70;99.90
8662;DHT22;29684;47.722;9.388;2023-09-18T03:49:55;17.80;99.90
8662;DHT22;29684;47.722;9.388;2023-09-18T03:52:40;17.80;99.90
8662;DHT22;29684;47.722;9.388;2023-09-18T03:55:24;18.00;99.90
8662;DHT22;29684;47.722;9.388;2023-09-18T03:58:08;18.10;99.90
8662;DHT22;29684;47.722;9.388;2023-09-18T04:00:53;18.10;99.90
8662;DHT22;29684;47.722;9.388;2023-09-18T04:03:38;18.20;99.90
8662;DHT22;29684;47.722;9.388;2023-09-18T04:06:22;18.20;99.90
8662;DHT22;29684;47.722;9.388;2023-09-18T04:09:08;18.20;99.90
8662;DHT22;29684;47.722;9.388;2023-09-18T04:11:53;18.20;99.90
8662;DHT22;29684;47.722;9.388;2023-09-18T04:14:39;18.30;99.90
8662;DHT22;29684;47.722;9.388;2023-09-18T04:17:24;18.30;99.90
8662;DHT22;29684;47.722;9.388;2023-09-18T04:20:09;18.30;99.90
8662;DHT22;29684;47.722;9.388;2023-09-18T04:23:17;18.20;99.90
8662;DHT22;29684;47.722;9.388;2023-09-18T04:26:01;18.20;99.90
8662;DHT22;29684;47.722;9.388;2023-09-18T04:28:45;18.10;99.90
8662;DHT22;29684;47.722;9.388;2023-09-18T04:31:30;18.00;99.90
8662;DHT22;29684;47.722;9.388;2023-09-18T04:34:14;17.90;99.90
8662;DHT22;29684;47.722;9.388;2023-09-18T04:36:58;17.90;99.90
8662;DHT22;29684;47.722;9.388;2023-09-18T04:39:42;17.80;99.90
8662;DHT22;29684;47.722;9.388;2023-09-18T04:42:26;17.80;99.90
8662;DHT22;29684;47.722;9.388;2023-09-18T04:45:11;17.70;99.90
8662;DHT22;29684;47.722;9.388;2023-09-18T04:47:55;17.60;99.90
8662;DHT22;29684;47.722;9.388;2023-09-18T04:50:40;17.50;99.90
8662;DHT22;29684;47.722;9.388;2023-09-18T04:53:24;17.50;99.90
8662;DHT22;29684;47.722;9.388;2023-09-18T04:56:09;17.50;99.90
8662;DHT22;29684;47.722;9.388;2023-09-18T04:58:55;17.60;99.90
8662;DHT22;29684;47.722;9.388;2023-09-18T05:01:39;17.50;99.90
8662;DHT22;29684;47.722;9.388;2023-09-18T05:04:23;17.40;99.90
8662;DHT22;29684;47.722;9.388;2023-09-18T05:07:08;17.50;99.90
8662;DHT22;29684;47.722;9.388;2023-09-18T05:09:52;17.50;99.90
8662;DHT22;29684;47.722;9.388;2023-09-18T05:12:39;17.60;99.90
8662;DHT22;29684;47.722;9.388;2023-09-18T05:15:23;17.60;99.90
8662;DHT22;29684;47.722;9.388;2023-09-18T05:18:09;17.70;99.90
8662;DHT22;29684;47.722;9.388;2023-09-18T05:20:53;17.80;99.90
8662;DHT22;29684;47.722;9.388;2023-09-18T05:23:37;17.80;99.90
8662;DHT22;29684;47.722;9.388;2023-09-18T05:26:22;17.80;99.90
8662;DHT22;29684;47.722;9.388;2023-09-18T05:29:08;17.70;99.90
8662;DHT22;29684;47.722;9.388;2023-09-18T05:31:54;17.60;99.90
8662;DHT22;29684;47.722;9.388;2023-09-18T05:34:38;17.80;99.90
8662;DHT22;29684;47.722;9.388;2023-09-18T05:37:22;18.00;99.90
8662;DHT22;29684;47.722;9.388;2023-09-18T05:40:11;18.20;99.90
8662;DHT22;29684;47.722;9.388;2023-09-18T05:42:56;18.20;99.90
8662;DHT22;29684;47.722;9.388;2023-09-18T05:45:41;18.20;99.90
8662;DHT22;29684;47.722;9.388;2023-09-18T05:48:25;18.20;99.90
8662;DHT22;29684;47.722;9.388;2023-09-18T05:51:09;18.40;99.90
8662;DHT22;29684;47.722;9.388;2023-09-18T05:53:53;18.50;99.90
8662;DHT22;29684;47.722;9.388;2023-09-18T05:56:38;18.50;99.90
8662;DHT22;29684;47.722;9.388;2023-09-18T05:59:22;18.60;99.90
8662;DHT22;29684;47.722;9.388;2023-09-18T06:02:06;18.80;99.90
8662;DHT22;29684;47.722;9.388;2023-09-18T06:04:58;18.90;99.90
8662;DHT22;29684;47.722;9.388;2023-09-18T06:07:44;19.10;99.90
8662;DHT22;29684;47.722;9.388;2023-09-18T06:10:28;19.40;99.90
8662;DHT22;29684;47.722;9.388;2023-09-18T06:13:12;19.30;99.90
8662;DHT22;29684;47.722;9.388;2023-09-18T06:15:56;19.20;99.90
8662;DHT22;29684;47.722;9.388;2023-09-18T06:18:41;19.20;99.90
8662;DHT22;29684;47.722;9.388;2023-09-18T06:21:26;19.30;99.90
8662;DHT22;29684;47.722;9.388;2023-09-18T06:24:10;19.50;99.90
8662;DHT22;29684;47.722;9.388;2023-09-18T06:26:55;19.60;99.90
8662;DHT22;29684;47.722;9.388;2023-09-18T06:29:40;19.80;99.90
8662;DHT22;29684;47.722;9.388;2023-09-18T06:32:26;19.80;99.90
8662;DHT22;29684;47.722;9.388;2023-09-18T06:35:10;19.80;99.90
8662;DHT22;29684;47.722;9.388;2023-09-18T06:37:54;19.80;99.90
8662;DHT22;29684;47.722;9.388;2023-09-18T06:40:42;19.90;99.90
8662;DHT22;29684;47.722;9.388;2023-09-18T06:43:26;20.00;99.90
8662;DHT22;29684;47.722;9.388;2023-09-18T06:46:10;20.00;99.90
8662;DHT22;29684;47.722;9.388;2023-09-18T06:48:55;20.00;99.90
8662;DHT22;29684;47.722;9.388;2023-09-18T06:51:40;19.90;99.90
8662;DHT22;29684;47.722;9.388;2023-09-18T06:54:24;19.80;99.90
8662;DHT22;29684;47.722;9.388;2023-09-18T06:57:08;19.20;99.90
8662;DHT22;29684;47.722;9.388;2023-09-18T06:59:52;19.10;99.90
8662;DHT22;29684;47.722;9.388;2023-09-18T07:02:36;19.40;99.90
8662;DHT22;29684;47.722;9.388;2023-09-18T07:05:20;19.30;99.90
8662;DHT22;29684;47.722;9.388;2023-09-18T07:08:05;19.20;99.90
8662;DHT22;29684;47.722;9.388;2023-09-18T07:10:53;19.20;99.90
8662;DHT22;29684;47.722;9.388;2023-09-18T07:13:38;19.20;99.90
8662;DHT22;29684;47.722;9.388;2023-09-18T07:16:22;19.30;99.90
8662;DHT22;29684;47.722;9.388;2023-09-18T07:19:06;19.30;99.90
8662;DHT22;29684;47.722;9.388;2023-09-18T07:21:51;19.40;99.90
8662;DHT22;29684;47.722;9.388;2023-09-18T07:24:36;19.50;99.90
8662;DHT22;29684;47.722;9.388;2023-09-18T07:27:20;19.60;99.90
8662;DHT22;29684;47.722;9.388;2023-09-18T07:30:05;19.70;99.90
8662;DHT22;29684;47.722;9.388;2023-09-18T07:32:49;19.80;99.90
8662;DHT22;29684;47.722;9.388;2023-09-18T07:35:33;19.90;99.90
8662;DHT22;29684;47.722;9.388;2023-09-18T07:38:18;19.90;99.90
8662;DHT22;29684;47.722;9.388;2023-09-18T07:41:05;19.90;99.90
8662;DHT22;29684;47.722;9.388;2023-09-18T07:43:49;19.90;99.90
8662;DHT22;29684;47.722;9.388;2023-09-18T07:46:34;20.00;99.90
8662;DHT22;29684;47.722;9.388;2023-09-18T07:49:19;19.90;99.90
8662;DHT22;29684;47.722;9.388;2023-09-18T07:52:03;20.00;99.90
8662;DHT22;29684;47.722;9.388;2023-09-18T07:54:47;20.00;99.90
8662;DHT22;29684;47.722;9.388;2023-09-18T07:57:31;20.00;99.90
8662;DHT22;29684;47.722;9.388;2023-09-18T08:00:18;20.00;99.90
8662;DHT22;29684;47.722;9.388;2023-09-18T08:03:03;20.10;99.90
8662;DHT22;29684;47.722;9.388;2023-09-18T08:05:49;20.20;99.90
8662;DHT22;29684;47.722;9.388;2023-09-18T08:08:34;20.10;99.90
8662;DHT22;29684;47.722;9.388;2023-09-18T08:11:20;20.10;99.90
8662;DHT22;29684;47.722;9.388;2023-09-18T08:14:04;20.10;99.90
8662;DHT22;29684;47.722;9.388;2023-09-18T08:16:49;20.10;99.90
8662;DHT22;29684;47.722;9.388;2023-09-18T08:19:40;20.10;99.90
8662;DHT22;29684;47.722;9.388;2023-09-18T08:22:25;20.10;99.90
8662;DHT22;29684;47.722;9.388;2023-09-18T08:25:09;20.00;99.90
8662;DHT22;29684;47.722;9.388;2023-09-18T08:27:54;20.00;99.90
8662;DHT22;29684;47.722;9.388;2023-09-18T08:30:38;19.90;99.90
8662;DHT22;29684;47.722;9.388;2023-09-18T08:33:24;19.80;99.90
8662;DHT22;29684;47.722;9.388;2023-09-18T08:36:09;19.80;99.90
8662;DHT22;29684;47.722;9.388;2023-09-18T08:38:53;19.60;99.90
8662;DHT22;29684;47.722;9.388;2023-09-18T08:41:40;19.50;99.90
8662;DHT22;29684;47.722;9.388;2023-09-18T08:44:27;19.50;99.90
8662;DHT22;29684;47.722;9.388;2023-09-18T08:47:12;19.40;99.90
8662;DHT22;29684;47.722;9.388;2023-09-18T08:49:59;19.30;99.90
8662;DHT22;29684;47.722;9.388;2023-09-18T08:52:45;19.10;99.90
8662;DHT22;29684;47.722;9.388;2023-09-18T08:55:30;19.10;99.90
8662;DHT22;29684;47.722;9.388;2023-09-18T08:58:14;18.90;99.90
8662;DHT22;29684;47.722;9.388;2023-09-18T09:00:59;18.60;99.90
8662;DHT22;29684;47.722;9.388;2023-09-18T09:03:45;18.40;99.90
8662;DHT22;29684;47.722;9.388;2023-09-18T09:06:29;18.10;99.90
8662;DHT22;29684;47.722;9.388;2023-09-18T09:09:14;17.80;99.90
8662;DHT22;29684;47.722;9.388;2023-09-18T09:11:58;17.40;99.90
8662;DHT22;29684;47.722;9.388;2023-09-18T09:15:02;17.30;99.90
8662;DHT22;29684;47.722;9.388;2023-09-18T09:17:48;17.20;99.90
8662;DHT22;29684;47.722;9.388;2023-09-18T09:20:34;17.10;99.90
8662;DHT22;29684;47.722;9.388;2023-09-18T09:23:19;17.00;99.90
8662;DHT22;29684;47.722;9.388;2023-09-18T09:26:15;16.90;99.90
8662;DHT22;29684;47.722;9.388;2023-09-18T09:29:20;16.90;99.90
8662;DHT22;29684;47.722;9.388;2023-09-18T09:32:16;16.90;99.90
8662;DHT22;29684;47.722;9.388;2023-09-18T09:35:00;16.90;99.90
8662;DHT22;29684;47.722;9.388;2023-09-18T09:37:49;17.00;99.90
8662;DHT22;29684;47.722;9.388;2023-09-18T09:40:41;16.80;99.90
8662;DHT22;29684;47.722;9.388;2023-09-18T09:43:26;16.80;99.90
8662;DHT22;29684;47.722;9.388;2023-09-18T09:46:18;16.80;99.90
8662;DHT22;29684;47.722;9.388;2023-09-18T09:49:04;16.80;99.90
8662;DHT22;29684;47.722;9.388;2023-09-18T09:51:48;16.80;99.90
8662;DHT22;29684;47.722;9.388;2023-09-18T09:54:35;16.80;99.90
8662;DHT22;29684;47.722;9.388;2023-09-18T09:57:22;16.70;99.90
8662;DHT22;29684;47.722;9.388;2023-09-18T10:00:06;16.70;99.90
8662;DHT22;29684;47.722;9.388;2023-09-18T10:03:07;16.70;99.90
8662;DHT22;29684;47.722;9.388;2023-09-18T10:05:53;16.80;99.90
8662;DHT22;29684;47.722;9.388;2023-09-18T10:08:38;16.80;99.90
8662;DHT22;29684;47.722;9.388;2023-09-18T10:11:24;16.70;99.90
8662;DHT22;29684;47.722;9.388;2023-09-18T10:14:14;16.80;99.90
8662;DHT22;29684;47.722;9.388;2023-09-18T10:17:16;16.70;99.90
8662;DHT22;29684;47.722;9.388;2023-09-18T10:20:08;16.80;99.90
8662;DHT22;29684;47.722;9.388;2023-09-18T10:22:56;16.90;99.90
8662;DHT22;29684;47.722;9.388;2023-09-18T10:25:41;16.90;99.90
8662;DHT22;29684;47.722;9.388;2023-09-18T10:28:26;17.00;99.90
8662;DHT22;29684;47.722;9.388;2023-09-18T10:31:12;17.00;99.90
8662;DHT22;29684;47.722;9.388;2023-09-18T10:33:57;17.10;99.90
8662;DHT22;29684;47.722;9.388;2023-09-18T10:36:43;17.30;99.90
8662;DHT22;29684;47.722;9.388;2023-09-18T10:39:31;17.40;99.90
8662;DHT22;29684;47.722;9.388;2023-09-18T10:42:18;17.50;99.90
8662;DHT22;29684;47.722;9.388;2023-09-18T10:45:04;17.70;99.90
8662;DHT22;29684;47.722;9.388;2023-09-18T10:47:49;17.70;99.90
8662;DHT22;29684;47.722;9.388;2023-09-18T10:50:35;17.80;99.90
8662;DHT22;29684;47.722;9.388;2023-09-18T10:53:19;17.80;99.90
8662;DHT22;29684;47.722;9.388;2023-09-18T10:56:05;17.90;99.90
8662;DHT22;29684;47.722;9.388;2023-09-18T10:58:58;17.90;99.90
8662;DHT22;29684;47.722;9.388;2023-09-18T11:01:44;17.90;99.90
8662;DHT22;29684;47.722;9.388;2023-09-18T11:04:29;18.00;99.90
8662;DHT22;29684;47.722;9.388;2023-09-18T11:07:21;18.10;99.90
8662;DHT22;29684;47.722;9.388;2023-09-18T11:10:27;18.20;99.90
8662;DHT22;29684;47.722;9.388;2023-09-18T11:13:11;18.20;99.90
8662;DHT22;29684;47.722;9.388;2023-09-18T11:19:12;18.30;99.90
8662;DHT22;29684;47.722;9.388;2023-09-18T11:22:07;18.30;99.90
8662;DHT22;29684;47.722;9.388;2023-09-18T11:25:28;18.20;99.90
8662;DHT22;29684;47.722;9.388;2023-09-18T11:31:01;18.30;99.90
8662;DHT22;29684;47.722;9.388;2023-09-18T11:33:47;18.40;99.90
8662;DHT22;29684;47.722;9.388;2023-09-18T11:36:32;18.50;99.90
8662;DHT22;29684;47.722;9.388;2023-09-18T11:39:36;18.60;99.90
8662;DHT22;29684;47.722;9.388;2023-09-18T11:42:21;18.70;99.90
8662;DHT22;29684;47.722;9.388;2023-09-18T11:45:06;18.70;99.90
8662;DHT22;29684;47.722;9.388;2023-09-18T11:47:51;19.00;99.90
8662;DHT22;29684;47.722;9.388;2023-09-18T11:50:41;19.00;99.90
8662;DHT22;29684;47.722;9.388;2023-09-18T11:53:27;18.90;99.90
8662;DHT22;29684;47.722;9.388;2023-09-18T11:56:11;18.90;99.90
8662;DHT22;29684;47.722;9.388;2023-09-18T11:59:01;18.90;99.90
8662;DHT22;29684;47.722;9.388;2023-09-18T12:01:53;18.90;99.90
8662;DHT22;29684;47.722;9.388;2023-09-18T12:04:38;19.00;99.90
8662;DHT22;29684;47.722;9.388;2023-09-18T12:07:23;19.20;99.90
8662;DHT22;29684;47.722;9.388;2023-09-18T12:10:09;19.30;99.90
8662;DHT22;29684;47.722;9.388;2023-09-18T12:12:54;19.30;99.90
8662;DHT22;29684;47.722;9.388;2023-09-18T12:15:38;19.50;99.90
8662;DHT22;29684;47.722;9.388;2023-09-18T12:18:24;19.40;99.90
8662;DHT22;29684;47.722;9.388;2023-09-18T12:21:09;19.40;99.90
8662;DHT22;29684;47.722;9.388;2023-09-18T12:23:53;19.40;99.90
8662;DHT22;29684;47.722;9.388;2023-09-18T12:26:37;19.40;99.90
8662;DHT22;29684;47.722;9.388;2023-09-18T12:29:22;19.50;99.90
8662;DHT22;29684;47.722;9.388;2023-09-18T12:32:09;19.50;99.90
8662;DHT22;29684;47.722;9.388;2023-09-18T12:34:57;19.40;99.90
8662;DHT22;29684;47.722;9.388;2023-09-18T12:37:42;19.40;99.90
8662;DHT22;29684;47.722;9.388;2023-09-18T12:40:28;19.30;99.90
8662;DHT22;29684;47.722;9.388;2023-09-18T12:43:13;19.30;99.90
8662;DHT22;29684;47.722;9.388;2023-09-18T12:45:59;19.30;99.90
8662;DHT22;29684;47.722;9.388;2023-09-18T12:48:44;19.40;99.90
8662;DHT22;29684;47.722;9.388;2023-09-18T12:51:31;19.50;99.90
8662;DHT22;29684;47.722;9.388;2023-09-18T12:54:18;19.50;99.90
8662;DHT22;29684;47.722;9.388;2023-09-18T12:57:06;19.50;99.90
8662;DHT22;29684;47.722;9.388;2023-09-18T12:59:51;19.50;99.90
8662;DHT22;29684;47.722;9.388;2023-09-18T13:02:38;19.40;99.90
8662;DHT22;29684;47.722;9.388;2023-09-18T13:05:23;19.50;99.90
8662;DHT22;29684;47.722;9.388;2023-09-18T13:08:11;19.60;99.90
8662;DHT22;29684;47.722;9.388;2023-09-18T13:10:56;19.60;99.90
8662;DHT22;29684;47.722;9.388;2023-09-18T13:13:40;19.60;99.90
8662;DHT22;29684;47.722;9.388;2023-09-18T13:16:24;19.60;99.90
8662;DHT22;29684;47.722;9.388;2023-09-18T13:19:10;19.40;99.90
8662;DHT22;29684;47.722;9.388;2023-09-18T13:21:54;19.40;99.90
8662;DHT22;29684;47.722;9.388;2023-09-18T13:24:38;19.20;99.90
8662;DHT22;29684;47.722;9.388;2023-09-18T13:27:22;19.20;99.90
8662;DHT22;29684;47.722;9.388;2023-09-18T13:30:08;19.30;99.90
8662;DHT22;29684;47.722;9.388;2023-09-18T13:33:03;19.40;99.90
8662;DHT22;29684;47.722;9.388;2023-09-18T13:35:48;19.60;99.90
8662;DHT22;29684;47.722;9.388;2023-09-18T13:38:32;19.80;99.90
8662;DHT22;29684;47.722;9.388;2023-09-18T13:41:16;19.90;99.90
8662;DHT22;29684;47.722;9.388;2023-09-18T13:44:00;19.80;99.90
8662;DHT22;29684;47.722;9.388;2023-09-18T13:46:44;19.90;99.90
8662;DHT22;29684;47.722;9.388;2023-09-18T13:49:28;19.90;99.90
8662;DHT22;29684;47.722;9.388;2023-09-18T13:52:13;20.00;99.90
8662;DHT22;29684;47.722;9.388;2023-09-18T13:54:58;20.00;99.90
8662;DHT22;29684;47.722;9.388;2023-09-18T13:57:43;20.00;99.90
8662;DHT22;29684;47.722;9.388;2023-09-18T14:00:27;19.90;99.90
8662;DHT22;29684;47.722;9.388;2023-09-18T14:03:11;19.90;99.90
8662;DHT22;29684;47.722;9.388;2023-09-18T14:05:59;20.00;99.90
8662;DHT22;29684;47.722;9.388;2023-09-18T14:08:43;20.00;99.90
8662;DHT22;29684;47.722;9.388;2023-09-18T14:11:27;20.00;99.90
8662;DHT22;29684;47.722;9.388;2023-09-18T14:14:11;20.00;99.90
8662;DHT22;29684;47.722;9.388;2023-09-18T14:16:57;20.00;99.90
8662;DHT22;29684;47.722;9.388;2023-09-18T14:19:42;20.10;99.90
8662;DHT22;29684;47.722;9.388;2023-09-18T14:22:29;20.00;99.90
8662;DHT22;29684;47.722;9.388;2023-09-18T14:25:13;20.00;99.90
8662;DHT22;29684;47.722;9.388;2023-09-18T14:27:57;19.90;99.90
8662;DHT22;29684;47.722;9.388;2023-09-18T14:30:42;20.20;99.90
8662;DHT22;29684;47.722;9.388;2023-09-18T14:33:26;20.10;99.90
8662;DHT22;29684;47.722;9.388;2023-09-18T14:36:10;20.30;99.90
8662;DHT22;29684;47.722;9.388;2023-09-18T14:38:54;20.50;99.90
8662;DHT22;29684;47.722;9.388;2023-09-18T14:41:40;20.40;99.90
8662;DHT22;29684;47.722;9.388;2023-09-18T14:44:25;20.30;99.90
8662;DHT22;29684;47.722;9.388;2023-09-18T14:47:13;20.50;99.90
8662;DHT22;29684;47.722;9.388;2023-09-18T14:49:57;20.90;99.90
8662;DHT22;29684;47.722;9.388;2023-09-18T19:02:57;21.10;99.90
8662;DHT22;29684;47.722;9.388;2023-09-18T19:05:41;17.80;99.90
8662;DHT22;29684;47.722;9.388;2023-09-18T19:08:28;17.40;99.90
8662;DHT22;29684;47.722;9.388;2023-09-18T19:11:12;17.30;99.90
8662;DHT22;29684;47.722;9.388;2023-09-18T19:14:00;17.30;99.90
8662;DHT22;29684;47.722;9.388;2023-09-18T19:16:44;17.30;99.90
8662;DHT22;29684;47.722;9.388;2023-09-18T19:19:28;17.40;99.90
8662;DHT22;29684;47.722;9.388;2023-09-18T19:22:13;17.10;99.90
8662;DHT22;29684;47.722;9.388;2023-09-18T19:24:57;17.00;99.90
8662;DHT22;29684;47.722;9.388;2023-09-18T19:27:41;17.00;99.90
8662;DHT22;29684;47.722;9.388;2023-09-18T19:30:25;17.00;99.90
8662;DHT22;29684;47.722;9.388;2023-09-18T19:33:13;17.00;99.90
8662;DHT22;29684;47.722;9.388;2023-09-18T19:36:08;16.90;99.90
8662;DHT22;29684;47.722;9.388;2023-09-18T19:38:52;17.00;99.90
8662;DHT22;29684;47.722;9.388;2023-09-18T19:41:37;16.90;99.90
8662;DHT22;29684;47.722;9.388;2023-09-18T19:44:21;16.80;99.90
8662;DHT22;29684;47.722;9.388;2023-09-18T19:47:05;16.90;99.90
8662;DHT22;29684;47.722;9.388;2023-09-18T19:49:51;16.80;99.90
8662;DHT22;29684;47.722;9.388;2023-09-18T19:52:36;16.80;99.90
8662;DHT22;29684;47.722;9.388;2023-09-18T19:55:20;16.70;99.90
8662;DHT22;29684;47.722;9.388;2023-09-18T19:58:05;16.60;99.90
8662;DHT22;29684;47.722;9.388;2023-09-18T20:00:49;16.50;99.90
8662;DHT22;29684;47.722;9.388;2023-09-18T20:03:35;16.50;99.90
8662;DHT22;29684;47.722;9.388;2023-09-18T20:06:20;16.50;99.90
8662;DHT22;29684;47.722;9.388;2023-09-18T20:09:04;16.60;99.90
8662;DHT22;29684;47.722;9.388;2023-09-18T20:11:49;16.60;99.90
8662;DHT22;29684;47.722;9.388;2023-09-18T20:14:34;16.60;99.90
8662;DHT22;29684;47.722;9.388;2023-09-18T20:17:21;16.60;99.90
8662;DHT22;29684;47.722;9.388;2023-09-18T20:20:05;16.60;99.90
8662;DHT22;29684;47.722;9.388;2023-09-18T20:22:50;16.50;99.90
8662;DHT22;29684;47.722;9.388;2023-09-18T20:25:35;16.50;99.90
8662;DHT22;29684;47.722;9.388;2023-09-18T20:28:20;16.50;99.90
8662;DHT22;29684;47.722;9.388;2023-09-18T20:31:04;16.40;99.90
8662;DHT22;29684;47.722;9.388;2023-09-18T20:33:49;16.30;99.90
8662;DHT22;29684;47.722;9.388;2023-09-18T20:36:34;16.30;99.90
8662;DHT22;29684;47.722;9.388;2023-09-18T20:39:19;16.30;99.90
8662;DHT22;29684;47.722;9.388;2023-09-18T20:42:03;16.40;99.90
8662;DHT22;29684;47.722;9.388;2023-09-18T20:44:48;16.50;99.90
8662;DHT22;29684;47.722;9.388;2023-09-18T20:47:32;16.50;99.90
8662;DHT22;29684;47.722;9.388;2023-09-18T20:50:17;15.30;99.90
8662;DHT22;29684;47.722;9.388;2023-09-18T20:53:04;16.60;99.90
8662;DHT22;29684;47.722;9.388;2023-09-18T20:55:51;16.50;99.90
8662;DHT22;29684;47.722;9.388;2023-09-18T20:58:35;16.40;99.90
8662;DHT22;29684;47.722;9.388;2023-09-18T21:01:20;16.30;99.90
8662;DHT22;29684;47.722;9.388;2023-09-18T21:04:04;16.40;99.90
8662;DHT22;29684;47.722;9.388;2023-09-18T21:06:49;16.50;99.90
8662;DHT22;29684;47.722;9.388;2023-09-18T21:09:33;16.60;99.90
8662;DHT22;29684;47.722;9.388;2023-09-18T21:12:19;16.80;99.90
8662;DHT22;29684;47.722;9.388;2023-09-18T21:15:06;16.80;99.90
8662;DHT22;29684;47.722;9.388;2023-09-18T21:17:51;16.90;99.90
8662;DHT22;29684;47.722;9.388;2023-09-18T21:20:35;16.90;99.90
8662;DHT22;29684;47.722;9.388;2023-09-18T21:23:19;16.80;99.90
8662;DHT22;29684;47.722;9.388;2023-09-18T21:26:04;16.90;99.90
8662;DHT22;29684;47.722;9.388;2023-09-18T21:28:48;16.90;99.90
8662;DHT22;29684;47.722;9.388;2023-09-18T21:31:33;16.90;99.90
8662;DHT22;29684;47.722;9.388;2023-09-18T21:34:18;17.00;99.90
8662;DHT22;29684;47.722;9.388;2023-09-18T21:37:03;17.10;99.90
8662;DHT22;29684;47.722;9.388;2023-09-18T21:39:48;17.10;99.90
8662;DHT22;29684;47.722;9.388;2023-09-18T21:42:32;17.00;99.90
8662;DHT22;29684;47.722;9.388;2023-09-18T21:45:17;16.90;99.90
8662;DHT22;29684;47.722;9.388;2023-09-18T21:48:01;16.90;99.90
8662;DHT22;29684;47.722;9.388;2023-09-18T21:50:45;16.90;99.90
8662;DHT22;29684;47.722;9.388;2023-09-18T21:53:30;16.90;99.90
8662;DHT22;29684;47.722;9.388;2023-09-18T21:56:15;17.00;99.90
8662;DHT22;29684;47.722;9.388;2023-09-18T21:58:59;17.10;99.90